createdAt,value
2022-08-28T00:00:35.537Z,21.50
2022-08-28T00:03:02.373Z,21.60
2022-08-28T00:05:29.877Z,21.50
2022-08-28T00:07:57.215Z,21.40
2022-08-28T00:10:24.400Z,21.50
2022-08-28T00:12:51.873Z,21.30
2022-08-28T00:15:19.883Z,21.30
2022-08-28T00:17:47.045Z,21.00
2022-08-28T00:20:13.957Z,21.00
2022-08-28T00:22:40.780Z,20.90
2022-08-28T00:25:09.292Z,21.00
2022-08-28T00:27:55.202Z,21.10
2022-08-28T00:30:35.667Z,21.30
2022-08-28T00:33:04.323Z,21.50
2022-08-28T00:35:31.137Z,21.70
2022-08-28T00:37:58.015Z,21.60
2022-08-28T00:40:28.963Z,21.60
2022-08-28T00:43:00.963Z,21.70
2022-08-28T00:45:28.255Z,21.80
2022-08-28T00:47:55.068Z,21.80
2022-08-28T00:50:22.560Z,21.70
2022-08-28T00:52:50.651Z,21.30
2022-08-28T00:55:22.423Z,21.60
2022-08-28T00:57:50.527Z,21.80
2022-08-28T01:00:19.323Z,21.50
2022-08-28T01:02:46.196Z,21.20
2022-08-28T01:05:13.978Z,21.30
2022-08-28T01:07:41.125Z,21.20
2022-08-28T01:10:09.651Z,21.20
2022-08-28T01:12:36.438Z,21.20
2022-08-28T01:15:05.569Z,21.00
2022-08-28T01:17:32.874Z,21.00
2022-08-28T01:20:02.620Z,21.10
2022-08-28T01:22:29.431Z,21.00
2022-08-28T01:24:58.317Z,21.00
2022-08-28T01:27:25.169Z,21.10
2022-08-28T01:29:51.998Z,21.20
2022-08-28T01:32:45.532Z,21.20
2022-08-28T01:35:13.847Z,21.20
2022-08-28T01:37:40.606Z,21.20
2022-08-28T01:40:09.383Z,21.20
2022-08-28T01:42:37.249Z,20.90
2022-08-28T01:45:04.209Z,20.90
2022-08-28T01:47:31.010Z,21.10
2022-08-28T01:49:57.892Z,21.10
2022-08-28T01:52:26.484Z,20.90
2022-08-28T01:54:53.502Z,21.00
2022-08-28T01:57:20.337Z,21.00
2022-08-28T01:59:49.983Z,21.20
2022-08-28T02:02:16.832Z,21.30
2022-08-28T02:04:47.948Z,20.80
2022-08-28T02:07:16.939Z,21.00
2022-08-28T02:09:43.755Z,20.90
2022-08-28T02:12:10.611Z,20.90
2022-08-28T02:14:38.464Z,20.80
2022-08-28T02:17:05.271Z,20.80
2022-08-28T02:19:32.282Z,20.90
2022-08-28T02:21:59.177Z,21.00
2022-08-28T02:24:26.025Z,21.10
2022-08-28T02:26:52.920Z,21.00
2022-08-28T02:29:19.858Z,21.00
2022-08-28T02:31:46.647Z,20.90
2022-08-28T02:34:13.411Z,21.10
2022-08-28T02:36:41.803Z,21.20
2022-08-28T02:39:08.583Z,21.20
2022-08-28T02:41:35.378Z,21.10
2022-08-28T02:44:02.375Z,21.10
2022-08-28T02:46:29.253Z,21.10
2022-08-28T02:48:56.307Z,21.20
2022-08-28T02:51:23.188Z,20.80
2022-08-28T02:53:50.511Z,20.80
2022-08-28T02:56:17.303Z,20.80
2022-08-28T02:58:44.150Z,20.80
2022-08-28T03:01:11.864Z,21.00
2022-08-28T03:03:40.942Z,21.00
2022-08-28T03:06:08.708Z,21.00
2022-08-28T03:08:35.555Z,21.00
2022-08-28T03:11:02.360Z,21.10
2022-08-28T03:13:30.165Z,21.00
2022-08-28T03:15:57.060Z,20.90
2022-08-28T03:18:24.529Z,20.70
2022-08-28T03:20:52.368Z,20.60
2022-08-28T03:23:28.092Z,20.80
2022-08-28T03:25:59.521Z,21.00
2022-08-28T03:28:26.833Z,21.00
2022-08-28T03:30:54.404Z,21.00
2022-08-28T03:33:21.262Z,20.50
2022-08-28T03:35:48.149Z,20.60
2022-08-28T03:38:15.463Z,20.70
2022-08-28T03:40:42.578Z,20.80
2022-08-28T03:43:10.598Z,20.80
2022-08-28T03:45:37.487Z,20.70
2022-08-28T03:48:04.700Z,20.50
2022-08-28T03:50:31.538Z,20.70
2022-08-28T03:52:59.333Z,20.70
2022-08-28T03:55:26.697Z,20.50
2022-08-28T03:57:53.484Z,20.40
2022-08-28T04:00:20.484Z,20.40
2022-08-28T04:02:47.295Z,20.40
2022-08-28T04:05:14.594Z,20.10
2022-08-28T04:07:41.408Z,20.10
2022-08-28T04:10:08.428Z,19.90
2022-08-28T04:12:36.148Z,19.80
2022-08-28T04:15:05.064Z,19.80
2022-08-28T04:17:33.194Z,19.90
2022-08-28T04:20:00.008Z,20.10
2022-08-28T04:22:26.783Z,20.10
2022-08-28T04:24:54.615Z,20.30
2022-08-28T04:27:21.441Z,20.50
2022-08-28T04:29:49.192Z,20.30
2022-08-28T04:32:16.058Z,20.50
2022-08-28T04:34:42.902Z,20.40
2022-08-28T04:37:09.717Z,20.20
2022-08-28T04:39:36.601Z,19.90
2022-08-28T04:42:03.461Z,19.90
2022-08-28T04:44:30.564Z,19.80
2022-08-28T04:46:57.341Z,19.90
2022-08-28T04:49:26.100Z,20.10
2022-08-28T04:51:53.241Z,20.10
2022-08-28T04:54:20.242Z,20.20
2022-08-28T04:56:47.113Z,20.30
2022-08-28T04:59:14.013Z,20.60
2022-08-28T05:01:41.186Z,20.70
2022-08-28T05:04:08.068Z,20.70
2022-08-28T05:06:34.862Z,21.00
2022-08-28T05:09:02.342Z,21.00
2022-08-28T05:11:33.179Z,21.20
2022-08-28T05:14:04.649Z,21.40
2022-08-28T05:16:31.778Z,21.30
2022-08-28T05:19:02.022Z,21.30
2022-08-28T05:21:28.937Z,21.30
2022-08-28T05:23:56.575Z,21.30
2022-08-28T05:26:23.622Z,21.40
2022-08-28T05:28:54.351Z,21.40
2022-08-28T05:31:21.560Z,21.20
2022-08-28T05:33:48.564Z,21.40
2022-08-28T05:36:15.813Z,21.50
2022-08-28T05:38:42.687Z,21.50
2022-08-28T05:41:09.487Z,21.60
2022-08-28T05:43:36.549Z,21.30
2022-08-28T05:46:10.269Z,21.20
2022-08-28T05:48:39.040Z,21.40
2022-08-28T05:51:06.586Z,21.20
2022-08-28T05:53:41.232Z,21.20
2022-08-28T05:56:08.541Z,20.90
2022-08-28T05:58:35.354Z,21.00
2022-08-28T06:01:08.233Z,21.30
2022-08-28T06:03:35.193Z,21.70
2022-08-28T06:06:02.052Z,22.10
2022-08-28T06:08:29.934Z,22.40
2022-08-28T06:10:57.097Z,22.80
2022-08-28T06:13:23.887Z,23.00
2022-08-28T06:15:50.713Z,22.80
2022-08-28T06:18:17.700Z,23.00
2022-08-28T06:20:45.024Z,23.00
2022-08-28T06:23:12.958Z,23.00
2022-08-28T06:25:40.078Z,23.30
2022-08-28T06:28:08.038Z,23.50
2022-08-28T06:30:37.164Z,23.50
2022-08-28T06:33:07.535Z,23.60
2022-08-28T06:35:34.634Z,23.40
2022-08-28T06:38:03.053Z,23.70
2022-08-28T06:40:30.008Z,23.90
2022-08-28T06:42:56.862Z,23.60
2022-08-28T06:45:23.644Z,23.60
2022-08-28T06:47:50.505Z,23.80
2022-08-28T06:50:20.639Z,23.80
2022-08-28T06:52:47.876Z,23.90
2022-08-28T06:55:14.721Z,23.80
2022-08-28T06:57:42.332Z,23.90
2022-08-28T07:00:09.491Z,23.80
2022-08-28T07:02:36.293Z,23.70
2022-08-28T07:05:03.334Z,23.90
2022-08-28T07:07:32.658Z,24.10
2022-08-28T07:09:59.627Z,24.00
2022-08-28T07:12:26.407Z,24.00
2022-08-28T07:14:55.524Z,23.70
2022-08-28T07:17:22.334Z,23.70
2022-08-28T07:19:49.134Z,24.20
2022-08-28T07:22:16.000Z,24.50
2022-08-28T07:24:42.832Z,24.60
2022-08-28T07:27:09.835Z,24.40
2022-08-28T07:29:36.714Z,24.30
2022-08-28T07:32:04.066Z,24.00
2022-08-28T07:34:30.893Z,24.20
2022-08-28T07:37:03.825Z,23.90
2022-08-28T07:39:30.812Z,23.70
2022-08-28T07:41:57.594Z,24.00
2022-08-28T07:44:42.947Z,23.90
2022-08-28T07:47:11.583Z,23.90
2022-08-28T07:49:38.716Z,24.00
2022-08-28T07:52:06.158Z,23.90
2022-08-28T07:54:33.218Z,24.10
2022-08-28T07:57:00.134Z,24.10
2022-08-28T07:59:28.110Z,24.30
2022-08-28T08:02:01.089Z,24.40
2022-08-28T08:04:27.849Z,24.50
2022-08-28T08:06:58.104Z,24.80
2022-08-28T08:09:25.301Z,24.70
2022-08-28T08:11:52.375Z,24.80
2022-08-28T08:14:19.280Z,24.70
2022-08-28T08:16:46.230Z,24.60
2022-08-28T08:19:14.188Z,24.90
2022-08-28T08:21:44.655Z,24.80
2022-08-28T08:24:19.818Z,24.60
2022-08-28T08:26:58.768Z,24.80
2022-08-28T08:29:27.289Z,24.70
2022-08-28T08:31:55.033Z,25.00
2022-08-28T08:34:21.798Z,24.90
2022-08-28T08:36:48.564Z,24.70
2022-08-28T08:39:15.345Z,24.40
2022-08-28T08:41:48.491Z,24.50
2022-08-28T08:44:33.237Z,24.80
2022-08-28T08:47:03.865Z,24.90
2022-08-28T08:49:32.842Z,25.00
2022-08-28T08:52:04.624Z,25.00
2022-08-28T08:54:31.421Z,25.20
2022-08-28T08:57:08.094Z,25.30
2022-08-28T08:59:38.469Z,25.60
2022-08-28T09:02:15.403Z,25.80
2022-08-28T09:04:53.341Z,25.80
2022-08-28T09:07:26.274Z,26.10
2022-08-28T09:09:56.413Z,26.30
2022-08-28T09:12:29.882Z,26.50
2022-08-28T09:15:07.696Z,26.60
2022-08-28T09:17:35.696Z,27.00
2022-08-28T09:20:02.600Z,26.80
2022-08-28T09:22:29.371Z,26.60
2022-08-28T09:24:56.228Z,26.20
2022-08-28T09:27:27.158Z,26.40
2022-08-28T09:30:07.285Z,26.30
2022-08-28T09:32:36.990Z,26.30
2022-08-28T09:35:14.186Z,26.20
2022-08-28T09:37:41.384Z,26.50
2022-08-28T09:40:15.235Z,27.50
2022-08-28T09:43:04.559Z,28.10
2022-08-28T09:45:31.412Z,28.60
2022-08-28T09:47:58.380Z,28.90
2022-08-28T09:50:28.284Z,28.90
2022-08-28T09:52:56.442Z,29.10
2022-08-28T09:55:42.116Z,29.00
2022-08-28T09:58:09.018Z,29.20
2022-08-28T10:00:37.129Z,29.80
2022-08-28T10:03:15.035Z,30.50
2022-08-28T10:05:45.362Z,30.40
2022-08-28T10:08:35.397Z,29.80
2022-08-28T10:11:04.882Z,29.80
2022-08-28T10:13:34.499Z,30.30
2022-08-28T10:16:11.642Z,31.60
2022-08-28T10:18:44.673Z,32.40
2022-08-28T10:21:22.152Z,31.30
2022-08-28T10:23:52.243Z,30.80
2022-08-28T10:26:31.211Z,30.10
2022-08-28T10:29:27.143Z,30.40
2022-08-28T10:31:53.926Z,30.20
2022-08-28T10:34:33.264Z,31.60
2022-08-28T10:37:03.552Z,32.50
2022-08-28T10:39:53.805Z,33.60
2022-08-28T10:42:39.720Z,33.60
2022-08-28T10:45:06.896Z,33.40
2022-08-28T10:47:35.062Z,34.40
2022-08-28T10:50:04.724Z,35.10
2022-08-28T10:52:32.896Z,34.60
2022-08-28T10:55:07.788Z,35.30
2022-08-28T10:57:53.416Z,35.40
2022-08-28T11:00:21.031Z,35.70
2022-08-28T11:02:52.314Z,35.70
2022-08-28T11:05:23.360Z,35.80
2022-08-28T11:07:54.544Z,36.60
2022-08-28T11:10:36.499Z,37.90
2022-08-28T11:13:04.127Z,38.40
2022-08-28T11:15:36.795Z,37.50
2022-08-28T11:18:15.940Z,37.30
2022-08-28T11:20:56.245Z,37.40
2022-08-28T11:23:24.409Z,37.00
2022-08-28T11:25:54.764Z,37.10
2022-08-28T11:28:24.561Z,37.50
2022-08-28T11:31:06.303Z,38.50
2022-08-28T11:33:39.081Z,37.20
2022-08-28T11:36:11.972Z,35.70
2022-08-28T11:38:41.993Z,35.30
2022-08-28T11:41:11.910Z,36.00
2022-08-28T11:43:39.610Z,36.10
2022-08-28T11:46:07.690Z,36.90
2022-08-28T11:48:39.462Z,36.90
2022-08-28T11:51:07.096Z,38.00
2022-08-28T11:53:38.133Z,38.20
2022-08-28T11:56:16.031Z,38.40
2022-08-28T11:58:57.797Z,37.90
2022-08-28T12:01:37.500Z,38.10
2022-08-28T12:04:08.070Z,36.70
2022-08-28T12:06:50.685Z,38.00
2022-08-28T12:09:26.828Z,39.50
2022-08-28T12:12:00.538Z,41.10
2022-08-28T12:14:27.897Z,42.20
2022-08-28T12:17:05.051Z,39.50
2022-08-28T12:19:41.130Z,38.90
2022-08-28T12:22:17.609Z,38.60
2022-08-28T12:24:46.150Z,41.10
2022-08-28T12:27:13.187Z,42.20
2022-08-28T12:29:47.498Z,42.50
2022-08-28T12:32:29.690Z,43.00
2022-08-28T12:34:59.487Z,41.50
2022-08-28T12:37:29.437Z,42.70
2022-08-28T12:39:57.834Z,42.50
2022-08-28T12:42:26.864Z,43.50
2022-08-28T12:44:53.687Z,43.40
2022-08-28T12:47:22.842Z,41.30
2022-08-28T12:49:49.634Z,43.60
2022-08-28T12:52:20.603Z,44.40
2022-08-28T12:54:47.918Z,45.60
2022-08-28T12:57:18.713Z,44.80
2022-08-28T12:59:55.546Z,44.30
2022-08-28T13:02:29.161Z,41.80
2022-08-28T13:04:57.667Z,41.60
2022-08-28T13:07:32.378Z,42.90
2022-08-28T13:10:00.177Z,43.70
2022-08-28T13:12:54.986Z,43.30
2022-08-28T13:15:39.500Z,44.30
2022-08-28T13:18:08.410Z,43.70
2022-08-28T13:20:36.467Z,43.60
2022-08-28T13:23:03.460Z,44.90
2022-08-28T13:25:36.817Z,41.80
2022-08-28T13:28:17.765Z,41.60
2022-08-28T13:30:44.601Z,42.00
2022-08-28T13:33:21.484Z,40.90
2022-08-28T13:35:48.805Z,39.20
2022-08-28T13:38:16.880Z,37.20
2022-08-28T13:41:03.759Z,36.70
2022-08-28T13:43:42.340Z,36.30
2022-08-28T13:46:09.150Z,35.60
2022-08-28T13:48:36.008Z,35.10
2022-08-28T13:51:05.173Z,35.00
2022-08-28T13:53:37.105Z,34.40
2022-08-28T13:56:04.198Z,33.60
2022-08-28T13:58:31.070Z,33.60
2022-08-28T14:00:57.982Z,33.30
2022-08-28T14:03:38.144Z,34.00
2022-08-28T14:06:12.520Z,34.00
2022-08-28T14:08:40.001Z,33.80
2022-08-28T14:11:07.409Z,33.60
2022-08-28T14:13:34.307Z,33.60
2022-08-28T14:16:03.402Z,33.80
2022-08-28T14:18:30.188Z,33.60
2022-08-28T14:20:56.985Z,33.60
2022-08-28T14:23:23.782Z,33.80
2022-08-28T14:25:50.862Z,33.80
2022-08-28T14:28:17.714Z,33.70
2022-08-28T14:30:49.069Z,33.30
2022-08-28T14:33:18.753Z,33.50
2022-08-28T14:35:48.753Z,33.30
2022-08-28T14:38:15.681Z,33.30
2022-08-28T14:40:42.919Z,33.60
2022-08-28T14:43:10.117Z,33.60
2022-08-28T14:45:46.374Z,33.50
2022-08-28T14:48:13.309Z,33.00
2022-08-28T14:50:44.048Z,33.00
2022-08-28T14:53:11.074Z,33.30
2022-08-28T14:55:41.903Z,33.50
2022-08-28T14:58:08.673Z,33.30
2022-08-28T15:00:42.533Z,33.60
2022-08-28T15:03:09.669Z,32.90
2022-08-28T15:05:36.508Z,33.30
2022-08-28T15:08:03.537Z,32.50
2022-08-28T15:10:30.339Z,32.60
2022-08-28T15:12:57.146Z,32.40
2022-08-28T15:15:25.681Z,32.70
2022-08-28T15:17:52.508Z,32.90
2022-08-28T15:20:19.340Z,33.00
2022-08-28T15:22:46.193Z,33.30
2022-08-28T15:25:13.052Z,33.40
2022-08-28T15:27:39.844Z,33.20
2022-08-28T15:30:07.878Z,33.10
2022-08-28T15:32:34.722Z,32.90
2022-08-28T15:35:01.505Z,32.70
2022-08-28T15:37:31.545Z,31.90
2022-08-28T15:40:17.476Z,31.50
2022-08-28T15:42:44.393Z,31.70
2022-08-28T15:45:12.283Z,31.90
2022-08-28T15:47:39.144Z,31.80
2022-08-28T15:50:06.945Z,31.80
2022-08-28T15:52:33.846Z,31.80
2022-08-28T15:55:00.702Z,31.90
2022-08-28T15:57:27.628Z,31.70
2022-08-28T15:59:54.560Z,31.60
2022-08-28T16:02:22.000Z,31.60
2022-08-28T16:04:48.940Z,31.20
2022-08-28T16:07:16.036Z,30.90
2022-08-28T16:09:42.851Z,30.40
2022-08-28T16:12:09.645Z,29.90
2022-08-28T16:14:36.465Z,29.70
2022-08-28T16:17:05.506Z,29.30
2022-08-28T16:19:37.320Z,29.30
2022-08-28T16:22:04.213Z,29.10
2022-08-28T16:24:30.987Z,28.90
2022-08-28T16:26:57.789Z,28.90
2022-08-28T16:29:24.600Z,28.70
2022-08-28T16:31:51.772Z,28.50
2022-08-28T16:34:19.514Z,28.40
2022-08-28T16:36:50.384Z,28.40
2022-08-28T16:39:17.557Z,28.10
2022-08-28T16:41:49.861Z,28.10
2022-08-28T16:44:20.292Z,28.10
2022-08-28T16:46:47.417Z,28.10
2022-08-28T16:49:14.286Z,28.10
2022-08-28T16:51:41.093Z,28.20
2022-08-28T16:54:07.955Z,28.10
2022-08-28T16:56:34.769Z,28.00
2022-08-28T16:59:01.595Z,27.80
2022-08-28T17:01:28.764Z,27.80
2022-08-28T17:03:55.693Z,27.70
2022-08-28T17:06:23.610Z,27.70
2022-08-28T17:08:55.900Z,27.50
2022-08-28T17:11:24.501Z,27.40
2022-08-28T17:13:51.511Z,27.40
2022-08-28T17:16:18.364Z,27.40
2022-08-28T17:18:47.943Z,27.20
2022-08-28T17:21:37.441Z,26.60
2022-08-28T17:24:04.328Z,25.90
2022-08-28T17:26:31.097Z,25.40
2022-08-28T17:28:57.854Z,25.30
2022-08-28T17:31:24.706Z,25.00
2022-08-28T17:33:51.669Z,24.80
2022-08-28T17:36:32.492Z,24.80
2022-08-28T17:39:01.727Z,24.50
2022-08-28T17:41:28.544Z,24.40
2022-08-28T17:43:55.550Z,24.20
2022-08-28T17:46:22.702Z,23.90
2022-08-28T17:48:54.499Z,23.80
2022-08-28T17:51:42.869Z,23.60
2022-08-28T17:54:14.415Z,23.60
2022-08-28T17:56:41.316Z,23.50
2022-08-28T17:59:08.097Z,23.50
2022-08-28T18:01:34.916Z,23.50
2022-08-28T18:04:01.769Z,23.10
2022-08-28T18:06:28.594Z,23.30
2022-08-28T18:08:55.369Z,23.50
2022-08-28T18:11:22.133Z,23.50
2022-08-28T18:13:48.914Z,23.30
2022-08-28T18:16:15.973Z,23.30
2022-08-28T18:18:43.080Z,23.40
2022-08-28T18:21:10.521Z,23.30
2022-08-28T18:23:37.532Z,22.90
2022-08-28T18:26:04.570Z,23.20
2022-08-28T18:28:33.684Z,23.40
2022-08-28T18:31:01.233Z,23.60
2022-08-28T18:33:28.236Z,23.70
2022-08-28T18:35:55.310Z,23.70
2022-08-28T18:38:22.460Z,23.70
2022-08-28T18:40:49.424Z,23.80
2022-08-28T18:43:17.988Z,23.90
2022-08-28T18:45:44.955Z,23.90
2022-08-28T18:48:11.983Z,23.80
2022-08-28T18:50:40.564Z,23.60
2022-08-28T18:53:10.431Z,23.80
2022-08-28T18:55:37.380Z,23.60
2022-08-28T18:58:04.615Z,23.60
2022-08-28T19:00:32.729Z,23.60
2022-08-28T19:02:59.988Z,23.80
2022-08-28T19:05:27.142Z,23.70
2022-08-28T19:07:53.986Z,23.60
2022-08-28T19:10:32.627Z,23.70
2022-08-28T19:13:01.056Z,23.70
2022-08-28T19:15:28.523Z,23.70
2022-08-28T19:17:55.376Z,23.80
2022-08-28T19:20:22.380Z,23.80
2022-08-28T19:22:49.233Z,23.70
2022-08-28T19:25:23.301Z,23.70
2022-08-28T19:27:56.346Z,23.80
2022-08-28T19:30:26.275Z,23.80
2022-08-28T19:32:53.423Z,23.80
2022-08-28T19:35:20.326Z,23.90
2022-08-28T19:37:51.036Z,24.00
2022-08-28T19:40:17.890Z,24.00
2022-08-28T19:42:44.825Z,23.90
2022-08-28T19:45:12.503Z,24.10
2022-08-28T19:47:40.148Z,24.00
2022-08-28T19:50:08.634Z,23.90
2022-08-28T19:52:36.495Z,24.00
2022-08-28T19:55:05.389Z,23.80
2022-08-28T19:57:32.669Z,23.90
2022-08-28T20:00:00.287Z,24.00
2022-08-28T20:02:28.632Z,24.00
2022-08-28T20:04:55.665Z,24.00
2022-08-28T20:07:22.655Z,23.70
2022-08-28T20:09:49.418Z,23.60
2022-08-28T20:12:16.665Z,23.80
2022-08-28T20:14:44.705Z,23.90
2022-08-28T20:17:11.669Z,23.70
2022-08-28T20:19:38.658Z,23.70
2022-08-28T20:22:05.442Z,23.60
2022-08-28T20:24:32.288Z,23.30
2022-08-28T20:26:59.211Z,23.50
2022-08-28T20:29:26.058Z,23.30
2022-08-28T20:31:52.961Z,23.30
2022-08-28T20:34:19.799Z,23.20
2022-08-28T20:36:46.789Z,23.00
2022-08-28T20:39:14.845Z,23.40
2022-08-28T20:41:41.707Z,23.60
2022-08-28T20:44:09.310Z,23.10
2022-08-28T20:46:40.734Z,23.20
2022-08-28T20:49:08.870Z,22.70
2022-08-28T20:51:53.673Z,22.50
2022-08-28T20:54:21.619Z,22.50
2022-08-28T20:56:48.929Z,22.50
2022-08-28T20:59:15.792Z,22.50
2022-08-28T21:01:42.647Z,22.50
2022-08-28T21:04:10.002Z,22.40
2022-08-28T21:06:38.323Z,22.60
2022-08-28T21:09:05.105Z,22.60
2022-08-28T21:11:31.891Z,22.50
2022-08-28T21:13:58.647Z,22.50
2022-08-28T21:16:25.624Z,22.40
2022-08-28T21:19:14.713Z,22.30
2022-08-28T21:21:39.259Z,22.20
2022-08-28T21:24:06.445Z,22.20
2022-08-28T21:26:33.221Z,22.10
2022-08-28T21:29:01.207Z,22.10
2022-08-28T21:31:27.974Z,21.90
2022-08-28T21:33:54.929Z,21.90
2022-08-28T21:36:22.300Z,21.80
2022-08-28T21:38:49.420Z,22.10
2022-08-28T21:41:16.246Z,22.10
2022-08-28T21:43:43.410Z,22.00
2022-08-28T21:46:10.274Z,22.00
2022-08-28T21:48:37.131Z,22.00
2022-08-28T21:51:07.894Z,22.10
2022-08-28T21:53:34.693Z,21.80
2022-08-28T21:56:01.506Z,21.90
2022-08-28T21:58:28.333Z,21.80
2022-08-28T22:00:57.030Z,21.70
2022-08-28T22:03:23.931Z,21.70
2022-08-28T22:05:50.915Z,21.80
2022-08-28T22:08:18.028Z,22.00
2022-08-28T22:10:44.826Z,22.10
2022-08-28T22:13:11.850Z,22.30
2022-08-28T22:15:42.513Z,22.30
2022-08-28T22:18:09.371Z,22.20
2022-08-28T22:20:36.636Z,22.50
2022-08-28T22:23:12.401Z,22.40
2022-08-28T22:25:42.418Z,22.50
2022-08-28T22:28:09.265Z,22.20
2022-08-28T22:30:36.087Z,22.20
2022-08-28T22:33:03.609Z,22.30
2022-08-28T22:35:30.377Z,21.60
2022-08-28T22:37:57.238Z,21.70
2022-08-28T22:40:24.299Z,21.80
2022-08-28T22:42:51.142Z,21.90
2022-08-28T22:45:18.233Z,21.40
2022-08-28T22:47:45.077Z,21.20
2022-08-28T22:50:12.084Z,21.20
2022-08-28T22:52:38.926Z,21.20
2022-08-28T22:55:08.558Z,21.20
2022-08-28T22:57:35.763Z,21.30
2022-08-28T23:00:04.552Z,21.30
2022-08-28T23:02:31.468Z,20.90
2022-08-28T23:04:58.248Z,20.90
2022-08-28T23:07:25.031Z,21.00
2022-08-28T23:09:51.785Z,21.30
2022-08-28T23:12:18.560Z,21.30
2022-08-28T23:14:48.360Z,21.30
2022-08-28T23:17:16.986Z,21.20
2022-08-28T23:19:44.006Z,21.10
2022-08-28T23:22:13.202Z,21.00
2022-08-28T23:24:40.134Z,21.10
2022-08-28T23:27:32.550Z,21.00
2022-08-28T23:29:54.950Z,21.20
2022-08-28T23:32:22.104Z,21.20
2022-08-28T23:34:49.083Z,21.20
2022-08-28T23:37:15.893Z,21.30
2022-08-28T23:39:42.700Z,21.30
2022-08-28T23:42:10.410Z,21.20
2022-08-28T23:44:37.177Z,21.40
2022-08-28T23:47:04.302Z,21.40
2022-08-28T23:49:32.165Z,21.20
2022-08-28T23:51:58.936Z,21.00
2022-08-28T23:54:26.529Z,20.90
2022-08-28T23:56:54.014Z,20.90
2022-08-28T23:59:22.801Z,20.80
